sensor_id;sensor_type;location;lat;lon;timestamp;temperature;humidity
20432;DHT22;10375;49.136;10.366;2023-02-13T00:00:21;-0.20;99.90
20432;DHT22;10375;49.136;10.366;2023-02-13T00:02:49;-0.30;99.90
20432;DHT22;10375;49.136;10.366;2023-02-13T00:05:17;-0.30;99.90
20432;DHT22;10375;49.136;10.366;2023-02-13T00:07:44;-0.40;99.90
20432;DHT22;10375;49.136;10.366;2023-02-13T00:10:11;-0.40;99.90
20432;DHT22;10375;49.136;10.366;2023-02-13T00:12:38;-0.50;99.90
20432;DHT22;10375;49.136;10.366;2023-02-13T00:15:06;-0.60;99.90
20432;DHT22;10375;49.136;10.366;2023-02-13T00:17:33;-0.70;99.90
20432;DHT22;10375;49.136;10.366;2023-02-13T00:20:00;-0.70;99.90
20432;DHT22;10375;49.136;10.366;2023-02-13T00:22:27;-0.80;99.90
20432;DHT22;10375;49.136;10.366;2023-02-13T00:24:54;-0.80;99.90
20432;DHT22;10375;49.136;10.366;2023-02-13T00:27:21;-0.80;99.90
20432;DHT22;10375;49.136;10.366;2023-02-13T00:29:48;-0.80;99.90
20432;DHT22;10375;49.136;10.366;2023-02-13T00:32:15;-0.70;99.90
20432;DHT22;10375;49.136;10.366;2023-02-13T00:34:42;-0.70;99.90
20432;DHT22;10375;49.136;10.366;2023-02-13T00:37:10;-0.60;99.90
20432;DHT22;10375;49.136;10.366;2023-02-13T00:39:37;-0.50;99.90
20432;DHT22;10375;49.136;10.366;2023-02-13T00:42:04;-0.60;99.90
20432;DHT22;10375;49.136;10.366;2023-02-13T00:44:31;-0.60;99.90
20432;DHT22;10375;49.136;10.366;2023-02-13T00:46:58;-0.60;99.90
20432;DHT22;10375;49.136;10.366;2023-02-13T00:49:25;-0.70;99.90
20432;DHT22;10375;49.136;10.366;2023-02-13T00:51:52;-0.70;99.90
20432;DHT22;10375;49.136;10.366;2023-02-13T00:54:19;-0.80;99.90
20432;DHT22;10375;49.136;10.366;2023-02-13T00:56:47;-0.70;99.90
20432;DHT22;10375;49.136;10.366;2023-02-13T00:59:14;-0.80;99.90
20432;DHT22;10375;49.136;10.366;2023-02-13T01:01:41;-0.70;99.90
20432;DHT22;10375;49.136;10.366;2023-02-13T01:04:08;-0.70;99.90
20432;DHT22;10375;49.136;10.366;2023-02-13T01:06:35;-0.80;99.90
20432;DHT22;10375;49.136;10.366;2023-02-13T01:09:03;-0.80;99.90
20432;DHT22;10375;49.136;10.366;2023-02-13T01:11:31;-0.80;99.90
20432;DHT22;10375;49.136;10.366;2023-02-13T01:13:58;-0.80;99.90
20432;DHT22;10375;49.136;10.366;2023-02-13T01:16:25;-0.80;99.90
20432;DHT22;10375;49.136;10.366;2023-02-13T01:18:52;-0.80;99.90
20432;DHT22;10375;49.136;10.366;2023-02-13T01:21:20;-0.80;99.90
20432;DHT22;10375;49.136;10.366;2023-02-13T01:23:49;-0.80;99.90
20432;DHT22;10375;49.136;10.366;2023-02-13T01:26:22;-0.80;99.90
20432;DHT22;10375;49.136;10.366;2023-02-13T01:28:53;-0.90;99.90
20432;DHT22;10375;49.136;10.366;2023-02-13T01:31:20;-0.80;99.90
20432;DHT22;10375;49.136;10.366;2023-02-13T01:33:48;-0.90;99.90
20432;DHT22;10375;49.136;10.366;2023-02-13T01:36:16;-0.90;99.90
20432;DHT22;10375;49.136;10.366;2023-02-13T01:38:43;-1.00;99.90
20432;DHT22;10375;49.136;10.366;2023-02-13T01:41:10;-1.00;99.90
20432;DHT22;10375;49.136;10.366;2023-02-13T01:43:50;-1.00;99.90
20432;DHT22;10375;49.136;10.366;2023-02-13T01:46:28;-1.00;99.90
20432;DHT22;10375;49.136;10.366;2023-02-13T01:49:12;-1.00;99.90
20432;DHT22;10375;49.136;10.366;2023-02-13T01:51:42;-0.90;99.90
20432;DHT22;10375;49.136;10.366;2023-02-13T01:54:15;-0.90;99.90
20432;DHT22;10375;49.136;10.366;2023-02-13T01:56:49;-1.00;99.90
20432;DHT22;10375;49.136;10.366;2023-02-13T01:59:20;-1.00;99.90
20432;DHT22;10375;49.136;10.366;2023-02-13T02:01:49;-1.00;99.90
20432;DHT22;10375;49.136;10.366;2023-02-13T02:04:23;-1.10;99.90
20432;DHT22;10375;49.136;10.366;2023-02-13T02:07:05;-1.10;99.90
20432;DHT22;10375;49.136;10.366;2023-02-13T02:09:37;-1.10;99.90
20432;DHT22;10375;49.136;10.366;2023-02-13T02:14:58;-1.00;99.90
20432;DHT22;10375;49.136;10.366;2023-02-13T02:17:26;-1.00;99.90
20432;DHT22;10375;49.136;10.366;2023-02-13T02:29:19;-0.90;99.90
20432;DHT22;10375;49.136;10.366;2023-02-13T02:37:24;-0.80;99.90
20432;DHT22;10375;49.136;10.366;2023-02-13T02:45:39;-0.50;99.90
20432;DHT22;10375;49.136;10.366;2023-02-13T02:51:25;-0.40;99.90
20432;DHT22;10375;49.136;10.366;2023-02-13T02:54:12;-0.30;99.90
20432;DHT22;10375;49.136;10.366;2023-02-13T02:57:05;-0.30;99.90
20432;DHT22;10375;49.136;10.366;2023-02-13T02:59:35;-0.30;99.90
20432;DHT22;10375;49.136;10.366;2023-02-13T03:02:22;-0.40;99.90
20432;DHT22;10375;49.136;10.366;2023-02-13T03:05:19;-0.40;99.90
20432;DHT22;10375;49.136;10.366;2023-02-13T03:08:06;-0.40;99.90
20432;DHT22;10375;49.136;10.366;2023-02-13T03:10:35;-0.30;99.90
20432;DHT22;10375;49.136;10.366;2023-02-13T03:13:42;-0.30;99.90
20432;DHT22;10375;49.136;10.366;2023-02-13T03:16:18;-0.20;99.90
20432;DHT22;10375;49.136;10.366;2023-02-13T03:19:04;-0.20;99.90
20432;DHT22;10375;49.136;10.366;2023-02-13T03:25:20;-0.20;99.90
20432;DHT22;10375;49.136;10.366;2023-02-13T03:33:48;-0.10;99.90
20432;DHT22;10375;49.136;10.366;2023-02-13T03:36:49;-0.10;99.90
20432;DHT22;10375;49.136;10.366;2023-02-13T03:45:13;0.10;99.90
20432;DHT22;10375;49.136;10.366;2023-02-13T03:48:04;0.10;99.90
20432;DHT22;10375;49.136;10.366;2023-02-13T03:50:59;0.00;99.90
20432;DHT22;10375;49.136;10.366;2023-02-13T03:53:30;0.00;99.90
20432;DHT22;10375;49.136;10.366;2023-02-13T03:55:59;0.00;99.90
20432;DHT22;10375;49.136;10.366;2023-02-13T03:58:49;0.00;99.90
20432;DHT22;10375;49.136;10.366;2023-02-13T04:01:37;0.00;99.90
20432;DHT22;10375;49.136;10.366;2023-02-13T04:04:12;0.00;99.90
20432;DHT22;10375;49.136;10.366;2023-02-13T04:07:04;0.00;99.90
20432;DHT22;10375;49.136;10.366;2023-02-13T04:09:34;-0.10;99.90
20432;DHT22;10375;49.136;10.366;2023-02-13T04:12:11;-0.10;99.90
20432;DHT22;10375;49.136;10.366;2023-02-13T04:14:57;-0.10;99.90
20432;DHT22;10375;49.136;10.366;2023-02-13T04:17:48;-0.10;99.90
20432;DHT22;10375;49.136;10.366;2023-02-13T04:20:18;-0.10;99.90
20432;DHT22;10375;49.136;10.366;2023-02-13T04:22:46;-0.10;99.90
20432;DHT22;10375;49.136;10.366;2023-02-13T04:25:16;-0.20;99.90
20432;DHT22;10375;49.136;10.366;2023-02-13T04:27:43;-0.20;99.90
20432;DHT22;10375;49.136;10.366;2023-02-13T04:30:11;-0.20;99.90
20432;DHT22;10375;49.136;10.366;2023-02-13T04:32:38;-0.20;99.90
20432;DHT22;10375;49.136;10.366;2023-02-13T04:35:05;-0.30;99.90
20432;DHT22;10375;49.136;10.366;2023-02-13T04:37:32;-0.30;99.90
20432;DHT22;10375;49.136;10.366;2023-02-13T04:39:59;-0.30;99.90
20432;DHT22;10375;49.136;10.366;2023-02-13T04:42:26;-0.30;99.90
20432;DHT22;10375;49.136;10.366;2023-02-13T04:44:53;-0.30;99.90
20432;DHT22;10375;49.136;10.366;2023-02-13T04:47:20;-0.20;99.90
20432;DHT22;10375;49.136;10.366;2023-02-13T04:49:47;-0.20;99.90
20432;DHT22;10375;49.136;10.366;2023-02-13T04:52:14;-0.20;99.90
20432;DHT22;10375;49.136;10.366;2023-02-13T04:54:41;-0.20;99.90
20432;DHT22;10375;49.136;10.366;2023-02-13T04:57:08;-0.20;99.90
20432;DHT22;10375;49.136;10.366;2023-02-13T04:59:35;-0.20;99.90
20432;DHT22;10375;49.136;10.366;2023-02-13T05:02:02;-0.20;99.90
20432;DHT22;10375;49.136;10.366;2023-02-13T05:04:29;-0.20;99.90
20432;DHT22;10375;49.136;10.366;2023-02-13T05:06:56;-0.20;99.90
20432;DHT22;10375;49.136;10.366;2023-02-13T05:09:23;-0.10;99.90
20432;DHT22;10375;49.136;10.366;2023-02-13T05:11:52;-0.20;99.90
20432;DHT22;10375;49.136;10.366;2023-02-13T05:14:19;-0.30;99.90
20432;DHT22;10375;49.136;10.366;2023-02-13T05:16:46;-0.30;99.90
20432;DHT22;10375;49.136;10.366;2023-02-13T05:19:15;-0.20;99.90
20432;DHT22;10375;49.136;10.366;2023-02-13T05:21:42;-0.20;99.90
20432;DHT22;10375;49.136;10.366;2023-02-13T05:24:28;-0.10;99.90
20432;DHT22;10375;49.136;10.366;2023-02-13T05:26:55;0.00;99.90
20432;DHT22;10375;49.136;10.366;2023-02-13T05:29:22;-0.10;99.90
20432;DHT22;10375;49.136;10.366;2023-02-13T05:31:54;-0.10;99.90
20432;DHT22;10375;49.136;10.366;2023-02-13T05:34:23;-0.10;99.90
20432;DHT22;10375;49.136;10.366;2023-02-13T05:36:51;-0.10;99.90
20432;DHT22;10375;49.136;10.366;2023-02-13T05:39:18;-0.10;99.90
20432;DHT22;10375;49.136;10.366;2023-02-13T05:41:46;0.00;99.90
20432;DHT22;10375;49.136;10.366;2023-02-13T05:44:14;0.00;99.90
20432;DHT22;10375;49.136;10.366;2023-02-13T05:46:42;0.00;99.90
20432;DHT22;10375;49.136;10.366;2023-02-13T05:49:12;0.00;99.90
20432;DHT22;10375;49.136;10.366;2023-02-13T05:51:39;0.00;99.90
20432;DHT22;10375;49.136;10.366;2023-02-13T05:54:07;0.00;99.90
20432;DHT22;10375;49.136;10.366;2023-02-13T05:56:34;0.10;99.90
20432;DHT22;10375;49.136;10.366;2023-02-13T05:59:01;0.10;99.90
20432;DHT22;10375;49.136;10.366;2023-02-13T06:01:28;0.10;99.90
20432;DHT22;10375;49.136;10.366;2023-02-13T06:03:55;0.20;99.90
20432;DHT22;10375;49.136;10.366;2023-02-13T06:06:25;0.20;99.90
20432;DHT22;10375;49.136;10.366;2023-02-13T06:08:52;0.30;99.90
20432;DHT22;10375;49.136;10.366;2023-02-13T06:11:19;0.30;99.90
20432;DHT22;10375;49.136;10.366;2023-02-13T06:13:46;0.30;99.90
20432;DHT22;10375;49.136;10.366;2023-02-13T06:16:13;0.40;99.90
20432;DHT22;10375;49.136;10.366;2023-02-13T06:18:40;0.40;99.90
20432;DHT22;10375;49.136;10.366;2023-02-13T06:21:08;0.40;99.90
20432;DHT22;10375;49.136;10.366;2023-02-13T06:23:35;0.40;99.90
20432;DHT22;10375;49.136;10.366;2023-02-13T06:26:07;0.40;99.90
20432;DHT22;10375;49.136;10.366;2023-02-13T06:28:34;0.40;99.90
20432;DHT22;10375;49.136;10.366;2023-02-13T06:31:02;0.50;99.90
20432;DHT22;10375;49.136;10.366;2023-02-13T06:33:29;0.50;99.90
20432;DHT22;10375;49.136;10.366;2023-02-13T06:35:56;0.50;99.90
20432;DHT22;10375;49.136;10.366;2023-02-13T06:38:23;0.50;99.90
20432;DHT22;10375;49.136;10.366;2023-02-13T06:40:50;0.50;99.90
20432;DHT22;10375;49.136;10.366;2023-02-13T06:43:17;0.50;99.90
20432;DHT22;10375;49.136;10.366;2023-02-13T06:45:45;0.50;99.90
20432;DHT22;10375;49.136;10.366;2023-02-13T06:48:13;0.50;99.90
20432;DHT22;10375;49.136;10.366;2023-02-13T06:50:40;0.50;99.90
20432;DHT22;10375;49.136;10.366;2023-02-13T06:53:07;0.60;99.90
20432;DHT22;10375;49.136;10.366;2023-02-13T06:55:35;0.60;99.90
20432;DHT22;10375;49.136;10.366;2023-02-13T06:58:05;0.60;99.90
20432;DHT22;10375;49.136;10.366;2023-02-13T07:00:32;0.70;99.90
20432;DHT22;10375;49.136;10.366;2023-02-13T07:03:04;0.70;99.90
20432;DHT22;10375;49.136;10.366;2023-02-13T07:05:32;0.80;99.90
20432;DHT22;10375;49.136;10.366;2023-02-13T07:07:59;0.80;99.90
20432;DHT22;10375;49.136;10.366;2023-02-13T07:10:26;0.80;99.90
20432;DHT22;10375;49.136;10.366;2023-02-13T07:12:53;1.00;99.90
20432;DHT22;10375;49.136;10.366;2023-02-13T07:15:35;1.00;99.90
20432;DHT22;10375;49.136;10.366;2023-02-13T07:18:03;1.00;99.90
20432;DHT22;10375;49.136;10.366;2023-02-13T07:20:31;1.00;99.90
20432;DHT22;10375;49.136;10.366;2023-02-13T07:22:59;1.00;99.90
20432;DHT22;10375;49.136;10.366;2023-02-13T07:25:26;1.00;99.90
20432;DHT22;10375;49.136;10.366;2023-02-13T07:27:54;1.00;99.90
20432;DHT22;10375;49.136;10.366;2023-02-13T07:30:21;1.00;99.90
20432;DHT22;10375;49.136;10.366;2023-02-13T07:32:48;1.00;99.90
20432;DHT22;10375;49.136;10.366;2023-02-13T07:35:15;1.10;99.90
20432;DHT22;10375;49.136;10.366;2023-02-13T07:37:42;1.10;99.90
20432;DHT22;10375;49.136;10.366;2023-02-13T07:40:10;1.10;99.90
20432;DHT22;10375;49.136;10.366;2023-02-13T07:42:37;1.10;99.90
20432;DHT22;10375;49.136;10.366;2023-02-13T07:45:04;1.10;99.90
20432;DHT22;10375;49.136;10.366;2023-02-13T07:47:33;1.20;99.90
20432;DHT22;10375;49.136;10.366;2023-02-13T07:50:02;1.20;99.90
20432;DHT22;10375;49.136;10.366;2023-02-13T07:52:31;1.20;99.90
20432;DHT22;10375;49.136;10.366;2023-02-13T07:54:59;1.20;99.90
20432;DHT22;10375;49.136;10.366;2023-02-13T07:57:26;1.30;99.90
20432;DHT22;10375;49.136;10.366;2023-02-13T07:59:53;1.30;99.90
20432;DHT22;10375;49.136;10.366;2023-02-13T08:02:20;1.30;99.90
20432;DHT22;10375;49.136;10.366;2023-02-13T08:04:47;1.30;99.90
20432;DHT22;10375;49.136;10.366;2023-02-13T08:07:15;1.30;99.90
20432;DHT22;10375;49.136;10.366;2023-02-13T08:09:44;1.30;99.90
20432;DHT22;10375;49.136;10.366;2023-02-13T08:12:31;1.30;99.90
20432;DHT22;10375;49.136;10.366;2023-02-13T08:14:58;1.40;99.90
20432;DHT22;10375;49.136;10.366;2023-02-13T08:17:25;1.40;99.90
20432;DHT22;10375;49.136;10.366;2023-02-13T08:19:52;1.40;99.90
20432;DHT22;10375;49.136;10.366;2023-02-13T08:22:19;1.40;99.90
20432;DHT22;10375;49.136;10.366;2023-02-13T08:24:46;1.40;99.90
20432;DHT22;10375;49.136;10.366;2023-02-13T08:27:14;1.40;99.90
20432;DHT22;10375;49.136;10.366;2023-02-13T08:29:41;1.40;99.90
20432;DHT22;10375;49.136;10.366;2023-02-13T08:32:08;1.40;99.90
20432;DHT22;10375;49.136;10.366;2023-02-13T08:34:36;1.50;99.90
20432;DHT22;10375;49.136;10.366;2023-02-13T08:37:04;1.50;99.90
20432;DHT22;10375;49.136;10.366;2023-02-13T08:39:31;1.60;99.90
20432;DHT22;10375;49.136;10.366;2023-02-13T08:41:58;1.60;99.90
20432;DHT22;10375;49.136;10.366;2023-02-13T08:44:26;1.60;99.90
20432;DHT22;10375;49.136;10.366;2023-02-13T08:46:53;1.60;99.90
20432;DHT22;10375;49.136;10.366;2023-02-13T08:49:20;1.60;99.90
20432;DHT22;10375;49.136;10.366;2023-02-13T08:51:47;1.60;99.90
20432;DHT22;10375;49.136;10.366;2023-02-13T08:54:15;1.70;99.90
20432;DHT22;10375;49.136;10.366;2023-02-13T08:56:42;1.70;99.90
20432;DHT22;10375;49.136;10.366;2023-02-13T08:59:09;1.80;99.90
20432;DHT22;10375;49.136;10.366;2023-02-13T09:01:36;1.80;99.90
20432;DHT22;10375;49.136;10.366;2023-02-13T09:04:03;1.80;99.90
20432;DHT22;10375;49.136;10.366;2023-02-13T09:06:30;1.90;99.90
20432;DHT22;10375;49.136;10.366;2023-02-13T09:08:57;1.90;99.90
20432;DHT22;10375;49.136;10.366;2023-02-13T09:11:24;1.90;99.90
20432;DHT22;10375;49.136;10.366;2023-02-13T09:13:52;2.00;99.90
20432;DHT22;10375;49.136;10.366;2023-02-13T09:16:20;2.00;99.90
20432;DHT22;10375;49.136;10.366;2023-02-13T09:18:48;2.10;99.90
20432;DHT22;10375;49.136;10.366;2023-02-13T09:21:17;2.10;99.90
20432;DHT22;10375;49.136;10.366;2023-02-13T09:23:44;2.20;99.90
20432;DHT22;10375;49.136;10.366;2023-02-13T09:26:13;2.30;99.90
20432;DHT22;10375;49.136;10.366;2023-02-13T09:28:41;2.30;99.90
20432;DHT22;10375;49.136;10.366;2023-02-13T09:31:12;2.30;99.90
20432;DHT22;10375;49.136;10.366;2023-02-13T09:33:45;2.20;99.90
20432;DHT22;10375;49.136;10.366;2023-02-13T09:36:15;2.30;99.90
20432;DHT22;10375;49.136;10.366;2023-02-13T09:38:42;2.30;99.90
20432;DHT22;10375;49.136;10.366;2023-02-13T09:41:18;2.20;99.90
20432;DHT22;10375;49.136;10.366;2023-02-13T09:43:52;2.20;99.90
20432;DHT22;10375;49.136;10.366;2023-02-13T09:46:32;2.20;99.90
20432;DHT22;10375;49.136;10.366;2023-02-13T09:49:05;2.30;99.90
20432;DHT22;10375;49.136;10.366;2023-02-13T09:51:34;2.30;99.90
20432;DHT22;10375;49.136;10.366;2023-02-13T09:54:06;2.40;99.90
20432;DHT22;10375;49.136;10.366;2023-02-13T09:56:54;2.60;99.90
20432;DHT22;10375;49.136;10.366;2023-02-13T10:02:40;2.90;99.90
20432;DHT22;10375;49.136;10.366;2023-02-13T10:16:18;2.80;99.90
20432;DHT22;10375;49.136;10.366;2023-02-13T10:19:13;2.60;99.90
20432;DHT22;10375;49.136;10.366;2023-02-13T10:21:54;2.60;99.90
20432;DHT22;10375;49.136;10.366;2023-02-13T10:27:05;2.50;99.90
20432;DHT22;10375;49.136;10.366;2023-02-13T10:29:46;2.50;99.90
20432;DHT22;10375;49.136;10.366;2023-02-13T10:32:56;2.60;99.90
20432;DHT22;10375;49.136;10.366;2023-02-13T10:38:41;2.70;99.90
20432;DHT22;10375;49.136;10.366;2023-02-13T10:41:36;3.00;99.90
20432;DHT22;10375;49.136;10.366;2023-02-13T10:47:15;3.30;99.90
20432;DHT22;10375;49.136;10.366;2023-02-13T10:49:47;3.50;99.90
20432;DHT22;10375;49.136;10.366;2023-02-13T11:00:38;3.90;99.90
20432;DHT22;10375;49.136;10.366;2023-02-13T11:03:20;4.00;99.90
20432;DHT22;10375;49.136;10.366;2023-02-13T11:05:49;4.00;99.90
20432;DHT22;10375;49.136;10.366;2023-02-13T11:10:49;4.10;99.90
20432;DHT22;10375;49.136;10.366;2023-02-13T11:13:19;4.10;99.90
20432;DHT22;10375;49.136;10.366;2023-02-13T11:15:57;4.20;99.90
20432;DHT22;10375;49.136;10.366;2023-02-13T11:18:27;4.00;99.90
20432;DHT22;10375;49.136;10.366;2023-02-13T11:21:09;3.90;99.90
20432;DHT22;10375;49.136;10.366;2023-02-13T11:23:41;3.90;99.90
20432;DHT22;10375;49.136;10.366;2023-02-13T11:26:33;4.00;99.90
20432;DHT22;10375;49.136;10.366;2023-02-13T11:29:04;4.20;99.90
20432;DHT22;10375;49.136;10.366;2023-02-13T11:31:35;4.20;99.90
20432;DHT22;10375;49.136;10.366;2023-02-13T11:34:24;4.10;99.90
20432;DHT22;10375;49.136;10.366;2023-02-13T11:36:54;4.10;99.90
20432;DHT22;10375;49.136;10.366;2023-02-13T11:39:33;4.30;99.90
20432;DHT22;10375;49.136;10.366;2023-02-13T11:42:00;4.40;99.90
20432;DHT22;10375;49.136;10.366;2023-02-13T11:44:31;4.50;99.90
20432;DHT22;10375;49.136;10.366;2023-02-13T11:47:00;4.60;99.90
20432;DHT22;10375;49.136;10.366;2023-02-13T11:49:38;4.60;99.90
20432;DHT22;10375;49.136;10.366;2023-02-13T11:52:26;4.50;99.90
20432;DHT22;10375;49.136;10.366;2023-02-13T11:54:59;4.60;99.90
20432;DHT22;10375;49.136;10.366;2023-02-13T11:57:32;4.60;99.90
20432;DHT22;10375;49.136;10.366;2023-02-13T12:00:24;4.80;99.90
20432;DHT22;10375;49.136;10.366;2023-02-13T12:02:48;4.90;99.90
20432;DHT22;10375;49.136;10.366;2023-02-13T12:05:18;4.90;99.90
20432;DHT22;10375;49.136;10.366;2023-02-13T12:07:46;4.90;99.90
20432;DHT22;10375;49.136;10.366;2023-02-13T12:10:45;5.00;99.90
20432;DHT22;10375;49.136;10.366;2023-02-13T12:13:19;5.00;99.90
20432;DHT22;10375;49.136;10.366;2023-02-13T12:15:59;4.80;99.90
20432;DHT22;10375;49.136;10.366;2023-02-13T12:21:12;4.40;99.90
20432;DHT22;10375;49.136;10.366;2023-02-13T12:33:01;4.60;99.90
20432;DHT22;10375;49.136;10.366;2023-02-13T12:38:19;4.50;99.90
20432;DHT22;10375;49.136;10.366;2023-02-13T12:43:54;4.60;99.90
20432;DHT22;10375;49.136;10.366;2023-02-13T12:46:29;4.50;99.90
20432;DHT22;10375;49.136;10.366;2023-02-13T12:49:30;4.60;99.90
20432;DHT22;10375;49.136;10.366;2023-02-13T12:52:31;4.70;99.90
20432;DHT22;10375;49.136;10.366;2023-02-13T13:06:57;5.80;99.90
20432;DHT22;10375;49.136;10.366;2023-02-13T13:09:43;5.80;99.90
20432;DHT22;10375;49.136;10.366;2023-02-13T13:17:32;5.70;99.90
20432;DHT22;10375;49.136;10.366;2023-02-13T13:22:57;5.60;99.90
20432;DHT22;10375;49.136;10.366;2023-02-13T13:25:39;5.50;99.90
20432;DHT22;10375;49.136;10.366;2023-02-13T13:28:15;5.50;99.90
20432;DHT22;10375;49.136;10.366;2023-02-13T13:30:44;5.60;99.90
20432;DHT22;10375;49.136;10.366;2023-02-13T13:33:16;5.70;99.90
20432;DHT22;10375;49.136;10.366;2023-02-13T13:38:56;5.80;99.90
20432;DHT22;10375;49.136;10.366;2023-02-13T13:41:46;5.80;99.90
20432;DHT22;10375;49.136;10.366;2023-02-13T13:52:31;5.20;99.90
20432;DHT22;10375;49.136;10.366;2023-02-13T13:55:00;5.20;99.90
20432;DHT22;10375;49.136;10.366;2023-02-13T14:02:40;5.50;99.90
20432;DHT22;10375;49.136;10.366;2023-02-13T14:05:32;5.60;99.90
20432;DHT22;10375;49.136;10.366;2023-02-13T14:08:01;5.50;99.90
20432;DHT22;10375;49.136;10.366;2023-02-13T14:23:37;6.20;99.90
20432;DHT22;10375;49.136;10.366;2023-02-13T14:26:34;6.30;99.90
20432;DHT22;10375;49.136;10.366;2023-02-13T14:31:42;6.10;99.90
20432;DHT22;10375;49.136;10.366;2023-02-13T14:34:23;6.00;99.90
20432;DHT22;10375;49.136;10.366;2023-02-13T14:39:36;5.70;99.90
20432;DHT22;10375;49.136;10.366;2023-02-13T14:42:27;5.60;99.90
20432;DHT22;10375;49.136;10.366;2023-02-13T14:44:57;5.60;99.90
20432;DHT22;10375;49.136;10.366;2023-02-13T14:49:58;5.10;99.90
20432;DHT22;10375;49.136;10.366;2023-02-13T14:52:34;5.10;99.90
20432;DHT22;10375;49.136;10.366;2023-02-13T14:55:12;5.10;99.90
20432;DHT22;10375;49.136;10.366;2023-02-13T14:57:44;5.20;99.90
20432;DHT22;10375;49.136;10.366;2023-02-13T15:03:17;4.80;99.90
20432;DHT22;10375;49.136;10.366;2023-02-13T15:05:50;4.60;99.90
20432;DHT22;10375;49.136;10.366;2023-02-13T15:08:21;4.60;99.90
20432;DHT22;10375;49.136;10.366;2023-02-13T15:10:51;4.50;99.90
20432;DHT22;10375;49.136;10.366;2023-02-13T15:13:23;4.40;99.90
20432;DHT22;10375;49.136;10.366;2023-02-13T15:15:58;4.30;99.90
20432;DHT22;10375;49.136;10.366;2023-02-13T15:18:29;4.20;99.90
20432;DHT22;10375;49.136;10.366;2023-02-13T15:20:59;4.10;99.90
20432;DHT22;10375;49.136;10.366;2023-02-13T15:23:31;4.00;99.90
20432;DHT22;10375;49.136;10.366;2023-02-13T15:26:04;4.00;99.90
20432;DHT22;10375;49.136;10.366;2023-02-13T15:28:33;4.10;99.90
20432;DHT22;10375;49.136;10.366;2023-02-13T15:31:06;4.00;99.90
20432;DHT22;10375;49.136;10.366;2023-02-13T15:33:46;4.00;99.90
20432;DHT22;10375;49.136;10.366;2023-02-13T15:36:19;4.00;99.90
20432;DHT22;10375;49.136;10.366;2023-02-13T15:38:47;4.00;99.90
20432;DHT22;10375;49.136;10.366;2023-02-13T15:41:23;3.90;99.90
20432;DHT22;10375;49.136;10.366;2023-02-13T15:43:56;3.80;99.90
20432;DHT22;10375;49.136;10.366;2023-02-13T15:46:35;3.70;99.90
20432;DHT22;10375;49.136;10.366;2023-02-13T15:49:07;3.60;99.90
20432;DHT22;10375;49.136;10.366;2023-02-13T15:51:35;3.50;99.90
20432;DHT22;10375;49.136;10.366;2023-02-13T15:54:24;3.40;99.90
20432;DHT22;10375;49.136;10.366;2023-02-13T15:56:52;3.30;99.90
20432;DHT22;10375;49.136;10.366;2023-02-13T15:59:21;3.30;99.90
20432;DHT22;10375;49.136;10.366;2023-02-13T16:01:48;3.20;99.90
20432;DHT22;10375;49.136;10.366;2023-02-13T16:04:17;3.20;99.90
20432;DHT22;10375;49.136;10.366;2023-02-13T16:06:46;3.20;99.90
20432;DHT22;10375;49.136;10.366;2023-02-13T16:09:32;3.10;99.90
20432;DHT22;10375;49.136;10.366;2023-02-13T16:12:27;3.10;99.90
20432;DHT22;10375;49.136;10.366;2023-02-13T16:17:32;3.00;99.90
20432;DHT22;10375;49.136;10.366;2023-02-13T16:27:56;2.70;99.90
20432;DHT22;10375;49.136;10.366;2023-02-13T16:30:34;2.70;99.90
20432;DHT22;10375;49.136;10.366;2023-02-13T16:38:37;2.60;99.90
20432;DHT22;10375;49.136;10.366;2023-02-13T16:41:05;2.70;99.90
20432;DHT22;10375;49.136;10.366;2023-02-13T16:44:05;2.70;99.90
20432;DHT22;10375;49.136;10.366;2023-02-13T16:46:53;2.70;99.90
20432;DHT22;10375;49.136;10.366;2023-02-13T16:49:23;2.70;99.90
20432;DHT22;10375;49.136;10.366;2023-02-13T16:51:55;2.70;99.90
20432;DHT22;10375;49.136;10.366;2023-02-13T16:54:55;2.70;99.90
20432;DHT22;10375;49.136;10.366;2023-02-13T16:57:42;2.60;99.90
20432;DHT22;10375;49.136;10.366;2023-02-13T17:00:20;2.60;99.90
20432;DHT22;10375;49.136;10.366;2023-02-13T17:02:51;2.60;99.90
20432;DHT22;10375;49.136;10.366;2023-02-13T17:05:23;2.60;99.90
20432;DHT22;10375;49.136;10.366;2023-02-13T17:07:54;2.50;99.90
20432;DHT22;10375;49.136;10.366;2023-02-13T17:10:31;2.50;99.90
20432;DHT22;10375;49.136;10.366;2023-02-13T17:15:34;2.50;99.90
20432;DHT22;10375;49.136;10.366;2023-02-13T17:18:01;2.50;99.90
20432;DHT22;10375;49.136;10.366;2023-02-13T17:20:31;2.40;99.90
20432;DHT22;10375;49.136;10.366;2023-02-13T17:23:00;2.40;99.90
20432;DHT22;10375;49.136;10.366;2023-02-13T17:25:33;2.40;99.90
20432;DHT22;10375;49.136;10.366;2023-02-13T17:30:33;2.40;99.90
20432;DHT22;10375;49.136;10.366;2023-02-13T17:33:04;2.30;99.90
20432;DHT22;10375;49.136;10.366;2023-02-13T17:35:33;2.30;99.90
20432;DHT22;10375;49.136;10.366;2023-02-13T17:38:01;2.30;99.90
20432;DHT22;10375;49.136;10.366;2023-02-13T17:40:28;2.30;99.90
20432;DHT22;10375;49.136;10.366;2023-02-13T17:42:58;2.30;99.90
20432;DHT22;10375;49.136;10.366;2023-02-13T17:45:27;2.20;99.90
20432;DHT22;10375;49.136;10.366;2023-02-13T17:47:54;2.20;99.90
20432;DHT22;10375;49.136;10.366;2023-02-13T17:50:24;2.20;99.90
20432;DHT22;10375;49.136;10.366;2023-02-13T17:52:51;2.20;99.90
20432;DHT22;10375;49.136;10.366;2023-02-13T17:55:21;2.10;99.90
20432;DHT22;10375;49.136;10.366;2023-02-13T17:57:51;2.10;99.90
20432;DHT22;10375;49.136;10.366;2023-02-13T18:00:20;2.10;99.90
20432;DHT22;10375;49.136;10.366;2023-02-13T18:02:48;2.00;99.90
20432;DHT22;10375;49.136;10.366;2023-02-13T18:05:16;2.00;99.90
20432;DHT22;10375;49.136;10.366;2023-02-13T18:07:45;1.90;99.90
20432;DHT22;10375;49.136;10.366;2023-02-13T18:10:22;2.00;99.90
20432;DHT22;10375;49.136;10.366;2023-02-13T18:12:50;1.90;99.90
20432;DHT22;10375;49.136;10.366;2023-02-13T18:15:18;1.90;99.90
20432;DHT22;10375;49.136;10.366;2023-02-13T18:17:45;1.90;99.90
20432;DHT22;10375;49.136;10.366;2023-02-13T18:20:15;1.90;99.90
20432;DHT22;10375;49.136;10.366;2023-02-13T18:22:43;1.80;99.90
20432;DHT22;10375;49.136;10.366;2023-02-13T18:25:12;1.80;99.90
20432;DHT22;10375;49.136;10.366;2023-02-13T18:27:39;1.80;99.90
20432;DHT22;10375;49.136;10.366;2023-02-13T18:30:07;1.80;99.90
20432;DHT22;10375;49.136;10.366;2023-02-13T18:32:34;1.70;99.90
20432;DHT22;10375;49.136;10.366;2023-02-13T18:35:01;1.80;99.90
20432;DHT22;10375;49.136;10.366;2023-02-13T18:37:28;1.70;99.90
20432;DHT22;10375;49.136;10.366;2023-02-13T18:39:55;1.70;99.90
20432;DHT22;10375;49.136;10.366;2023-02-13T18:42:23;1.70;99.90
20432;DHT22;10375;49.136;10.366;2023-02-13T18:44:50;1.70;99.90
20432;DHT22;10375;49.136;10.366;2023-02-13T18:47:17;1.70;99.90
20432;DHT22;10375;49.136;10.366;2023-02-13T18:49:44;1.70;99.90
20432;DHT22;10375;49.136;10.366;2023-02-13T18:52:12;1.70;99.90